createdAt,value
2018-03-08T00:00:25.277Z,1013.54
2018-03-08T00:01:25.252Z,1013.55
2018-03-08T00:02:25.232Z,1013.56
2018-03-08T00:03:25.156Z,1013.61
2018-03-08T00:04:25.162Z,1013.60
2018-03-08T00:05:25.105Z,1013.63
2018-03-08T00:06:25.078Z,1013.59
2018-03-08T00:07:25.075Z,1013.58
2018-03-08T00:08:25.024Z,1013.58
2018-03-08T00:09:25.006Z,1013.59
2018-03-08T00:10:24.979Z,1013.62
2018-03-08T00:11:24.942Z,1013.60
2018-03-08T00:12:24.910Z,1013.60
2018-03-08T00:13:24.878Z,1013.64
2018-03-08T00:14:24.842Z,1013.66
2018-03-08T00:15:24.847Z,1013.69
2018-03-08T00:16:24.795Z,1013.68
2018-03-08T00:17:24.775Z,1013.71
2018-03-08T00:18:24.746Z,1013.70
2018-03-08T00:19:24.728Z,1013.71
2018-03-08T00:20:24.678Z,1013.73
2018-03-08T00:21:24.671Z,1013.71
2018-03-08T00:22:24.639Z,1013.73
2018-03-08T00:23:24.612Z,1013.72
2018-03-08T00:24:24.589Z,1013.75
2018-03-08T00:25:24.542Z,1013.77
2018-03-08T00:26:24.534Z,1013.74
2018-03-08T00:27:24.481Z,1013.74
2018-03-08T00:28:24.431Z,1013.72
2018-03-08T00:29:24.439Z,1013.75
2018-03-08T00:30:24.381Z,1013.77
2018-03-08T00:31:24.361Z,1013.73
2018-03-08T00:32:24.361Z,1013.74
2018-03-08T00:33:24.324Z,1013.74
2018-03-08T00:34:24.307Z,1013.70
2018-03-08T00:35:24.275Z,1013.76
2018-03-08T00:36:24.209Z,1013.73
2018-03-08T00:37:24.185Z,1013.71
2018-03-08T00:38:24.147Z,1013.72
2018-03-08T00:39:24.163Z,1013.74
2018-03-08T00:40:24.108Z,1013.73
2018-03-08T00:41:24.128Z,1013.74
2018-03-08T00:42:24.043Z,1013.74
2018-03-08T00:43:24.034Z,1013.75
2018-03-08T00:44:24.008Z,1013.78
2018-03-08T00:45:23.965Z,1013.78
2018-03-08T00:46:23.905Z,1013.77
2018-03-08T00:47:23.895Z,1013.79
2018-03-08T00:48:23.878Z,1013.79
2018-03-08T00:49:23.839Z,1013.79
2018-03-08T00:50:23.840Z,1013.76
2018-03-08T00:51:23.832Z,1013.78
2018-03-08T00:52:23.761Z,1013.75
2018-03-08T00:53:23.733Z,1013.75
2018-03-08T00:54:23.686Z,1013.78
2018-03-08T00:55:23.676Z,1013.78
2018-03-08T00:56:23.643Z,1013.78
2018-03-08T00:57:23.603Z,1013.76
2018-03-08T00:58:23.579Z,1013.75
2018-03-08T00:59:23.576Z,1013.76
2018-03-08T01:00:24.523Z,1013.79
2018-03-08T01:01:23.493Z,1013.78
2018-03-08T01:02:23.461Z,1013.82
2018-03-08T01:03:23.467Z,1013.81
2018-03-08T01:04:23.433Z,1013.84
2018-03-08T01:05:23.406Z,1013.80
2018-03-08T01:06:23.350Z,1013.85
2018-03-08T01:07:23.316Z,1013.84
2018-03-08T01:08:23.304Z,1013.80
2018-03-08T01:09:23.269Z,1013.83
2018-03-08T01:10:23.212Z,1013.79
2018-03-08T01:11:23.196Z,1013.80
2018-03-08T01:12:23.167Z,1013.80
2018-03-08T01:13:23.140Z,1013.82
2018-03-08T01:14:23.124Z,1013.80
2018-03-08T01:15:23.115Z,1013.78
2018-03-08T01:16:23.073Z,1013.82
2018-03-08T01:17:23.049Z,1013.80
2018-03-08T01:18:23.001Z,1013.77
2018-03-08T01:19:22.969Z,1013.82
2018-03-08T01:20:22.940Z,1013.76
2018-03-08T01:21:22.909Z,1013.81
2018-03-08T01:22:23.516Z,1013.78
2018-03-08T01:23:22.854Z,1013.78
2018-03-08T01:24:22.819Z,1013.79
2018-03-08T01:25:22.786Z,1013.78
2018-03-08T01:26:22.792Z,1013.75
2018-03-08T01:27:22.723Z,1013.77
2018-03-08T01:28:22.706Z,1013.80
2018-03-08T01:29:22.678Z,1013.74
2018-03-08T01:30:22.654Z,1013.72
2018-03-08T01:31:22.655Z,1013.72
2018-03-08T01:32:22.598Z,1013.71
2018-03-08T01:33:22.567Z,1013.72
2018-03-08T01:34:22.532Z,1013.73
2018-03-08T01:35:22.522Z,1013.69
2018-03-08T01:36:22.472Z,1013.70
2018-03-08T01:37:22.474Z,1013.66
2018-03-08T01:38:22.427Z,1013.69
2018-03-08T01:39:22.382Z,1013.65
2018-03-08T01:40:22.354Z,1013.67
2018-03-08T01:41:22.347Z,1013.64
2018-03-08T01:42:22.317Z,1013.63
2018-03-08T01:43:22.262Z,1013.60
2018-03-08T01:44:22.245Z,1013.63
2018-03-08T01:45:22.231Z,1013.60
2018-03-08T01:46:22.201Z,1013.57
2018-03-08T01:47:22.155Z,1013.59
2018-03-08T01:48:22.110Z,1013.57
2018-03-08T01:49:22.105Z,1013.54
2018-03-08T01:50:22.053Z,1013.50
2018-03-08T01:51:22.021Z,1013.55
2018-03-08T01:52:22.034Z,1013.52
2018-03-08T01:53:22.006Z,1013.49
2018-03-08T01:54:21.976Z,1013.48
2018-03-08T01:55:21.943Z,1013.49
2018-03-08T01:56:21.894Z,1013.44
2018-03-08T01:57:21.861Z,1013.44
2018-03-08T01:58:21.829Z,1013.44
2018-03-08T01:59:21.820Z,1013.45
2018-03-08T02:00:21.771Z,1013.46
2018-03-08T02:01:21.745Z,1013.41
2018-03-08T02:02:21.703Z,1013.42
2018-03-08T02:03:21.684Z,1013.45
2018-03-08T02:04:21.675Z,1013.43
2018-03-08T02:05:21.626Z,1013.39
2018-03-08T02:06:21.577Z,1013.40
2018-03-08T02:07:21.575Z,1013.37
2018-03-08T02:08:21.561Z,1013.36
2018-03-08T02:09:21.516Z,1013.36
2018-03-08T02:10:21.511Z,1013.36
2018-03-08T02:11:21.442Z,1013.33
2018-03-08T02:12:21.428Z,1013.35
2018-03-08T02:13:21.399Z,1013.33
2018-03-08T02:14:21.377Z,1013.31
2018-03-08T02:15:21.323Z,1013.34
2018-03-08T02:16:21.359Z,1013.37
2018-03-08T02:17:21.296Z,1013.31
2018-03-08T02:18:21.246Z,1013.30
2018-03-08T02:19:21.216Z,1013.29
2018-03-08T02:20:21.215Z,1013.32
2018-03-08T02:21:21.145Z,1013.27
2018-03-08T02:22:21.152Z,1013.28
2018-03-08T02:23:21.117Z,1013.22
2018-03-08T02:24:21.062Z,1013.23
2018-03-08T02:25:21.059Z,1013.26
2018-03-08T02:26:21.015Z,1013.21
2018-03-08T02:27:20.983Z,1013.21
2018-03-08T02:28:20.959Z,1013.22
2018-03-08T02:29:20.936Z,1013.21
2018-03-08T02:30:20.918Z,1013.18
2018-03-08T02:31:20.856Z,1013.18
2018-03-08T02:32:20.854Z,1013.17
2018-03-08T02:33:20.837Z,1013.16
2018-03-08T02:34:20.795Z,1013.17
2018-03-08T02:35:20.767Z,1013.16
2018-03-08T02:36:20.721Z,1013.13
2018-03-08T02:37:20.677Z,1013.14
2018-03-08T02:38:20.656Z,1013.16
2018-03-08T02:39:20.644Z,1013.11
2018-03-08T02:40:20.620Z,1013.07
2018-03-08T02:41:20.570Z,1013.06
2018-03-08T02:42:20.525Z,1013.09
2018-03-08T02:43:20.514Z,1013.09
2018-03-08T02:44:20.479Z,1013.12
2018-03-08T02:45:20.463Z,1013.12
2018-03-08T02:46:20.453Z,1013.10
2018-03-08T02:47:20.392Z,1013.09
2018-03-08T02:48:20.343Z,1013.10
2018-03-08T02:49:20.358Z,1013.09
2018-03-08T02:50:20.307Z,1013.08
2018-03-08T02:51:20.282Z,1013.11
2018-03-08T02:52:20.237Z,1013.07
2018-03-08T02:53:20.218Z,1013.07
2018-03-08T02:54:20.198Z,1013.06
2018-03-08T02:55:20.165Z,1013.08
2018-03-08T02:56:20.137Z,1013.04
2018-03-08T02:57:20.091Z,1013.05
2018-03-08T02:58:20.063Z,1013.07
2018-03-08T02:59:20.037Z,1013.09
2018-03-08T03:00:20.031Z,1013.09
2018-03-08T03:01:19.974Z,1013.09
2018-03-08T03:02:19.963Z,1013.08
2018-03-08T03:03:19.928Z,1013.08
2018-03-08T03:04:19.922Z,1013.11
2018-03-08T03:05:19.864Z,1013.07
2018-03-08T03:06:20.807Z,1013.13
2018-03-08T03:07:19.834Z,1013.15
2018-03-08T03:08:19.767Z,1013.12
2018-03-08T03:09:19.773Z,1013.13
2018-03-08T03:10:19.725Z,1013.10
2018-03-08T03:11:19.692Z,1013.13
2018-03-08T03:12:19.674Z,1013.10
2018-03-08T03:13:19.643Z,1013.12
2018-03-08T03:14:19.606Z,1013.14
2018-03-08T03:15:19.570Z,1013.13
2018-03-08T03:16:19.532Z,1013.10
2018-03-08T03:17:19.497Z,1013.13
2018-03-08T03:18:19.493Z,1013.12
2018-03-08T03:19:19.434Z,1013.12
2018-03-08T03:20:19.414Z,1013.12
2018-03-08T03:21:19.386Z,1013.14
2018-03-08T03:22:19.357Z,1013.13
2018-03-08T03:23:19.325Z,1013.12
2018-03-08T03:24:19.304Z,1013.12
2018-03-08T03:25:19.288Z,1013.10
2018-03-08T03:26:19.258Z,1013.11
2018-03-08T03:27:19.210Z,1013.14
2018-03-08T03:28:19.205Z,1013.12
2018-03-08T03:29:19.175Z,1013.09
2018-03-08T03:30:19.121Z,1013.09
2018-03-08T03:31:19.088Z,1013.08
2018-03-08T03:32:19.091Z,1013.07
2018-03-08T03:33:19.044Z,1013.09
2018-03-08T03:34:18.992Z,1013.06
2018-03-08T03:35:19.004Z,1013.08
2018-03-08T03:36:18.971Z,1013.06
2018-03-08T03:37:18.918Z,1013.11
2018-03-08T03:38:18.867Z,1013.07
2018-03-08T03:39:18.862Z,1013.07
2018-03-08T03:40:18.818Z,1013.04
2018-03-08T03:41:18.806Z,1013.07
2018-03-08T03:42:18.796Z,1013.04
2018-03-08T03:43:18.731Z,1013.05
2018-03-08T03:44:18.700Z,1013.06
2018-03-08T03:45:18.676Z,1013.08
2018-03-08T03:46:18.642Z,1013.05
2018-03-08T03:47:18.629Z,1013.03
2018-03-08T03:48:18.589Z,1012.96
2018-03-08T03:49:18.556Z,1013.00
2018-03-08T03:50:18.521Z,1012.97
2018-03-08T03:51:18.508Z,1013.01
2018-03-08T03:52:18.478Z,1012.98
2018-03-08T03:53:18.453Z,1012.96
2018-03-08T03:54:18.417Z,1012.99
2018-03-08T03:55:18.406Z,1012.97
2018-03-08T03:56:18.358Z,1012.96
2018-03-08T03:57:18.314Z,1012.97
2018-03-08T03:58:18.286Z,1012.94
2018-03-08T03:59:18.286Z,1012.96
2018-03-08T04:00:18.238Z,1012.92
2018-03-08T04:01:18.202Z,1012.94
2018-03-08T04:02:18.195Z,1012.98
2018-03-08T04:03:18.147Z,1012.96
2018-03-08T04:04:18.114Z,1012.97
2018-03-08T04:05:18.106Z,1012.93
2018-03-08T04:06:18.077Z,1012.95
2018-03-08T04:07:18.041Z,1012.99
2018-03-08T04:08:18.026Z,1013.00
2018-03-08T04:09:17.968Z,1013.01
2018-03-08T04:10:17.935Z,1012.98
2018-03-08T04:11:17.905Z,1013.00
2018-03-08T04:12:17.878Z,1012.94
2018-03-08T04:13:17.839Z,1013.00
2018-03-08T04:14:17.813Z,1013.04
2018-03-08T04:15:17.779Z,1012.96
2018-03-08T04:16:17.756Z,1012.95
2018-03-08T04:17:17.757Z,1012.93
2018-03-08T04:18:17.698Z,1012.96
2018-03-08T04:19:17.697Z,1012.98
2018-03-08T04:20:17.643Z,1012.96
2018-03-08T04:21:17.632Z,1012.94
2018-03-08T04:22:17.590Z,1012.93
2018-03-08T04:23:17.540Z,1012.91
2018-03-08T04:24:17.517Z,1012.89
2018-03-08T04:25:17.492Z,1012.90
2018-03-08T04:26:17.461Z,1012.90
2018-03-08T04:27:17.418Z,1012.90
2018-03-08T04:28:17.407Z,1012.90
2018-03-08T04:29:17.354Z,1012.86
2018-03-08T04:30:17.331Z,1012.81
2018-03-08T04:31:17.319Z,1012.82
2018-03-08T04:32:17.342Z,1012.85
2018-03-08T04:33:17.259Z,1012.81
2018-03-08T04:34:17.216Z,1012.84
2018-03-08T04:35:17.189Z,1012.85
2018-03-08T04:36:17.170Z,1012.80
2018-03-08T04:37:17.162Z,1012.80
2018-03-08T04:38:17.095Z,1012.81
2018-03-08T04:39:17.081Z,1012.78
2018-03-08T04:40:17.042Z,1012.78
2018-03-08T04:41:17.013Z,1012.78
2018-03-08T04:42:16.985Z,1012.73
2018-03-08T04:43:16.945Z,1012.76
2018-03-08T04:44:16.924Z,1012.75
2018-03-08T04:45:16.894Z,1012.75
2018-03-08T04:46:16.867Z,1012.70
2018-03-08T04:47:16.833Z,1012.75
2018-03-08T04:48:16.799Z,1012.77
2018-03-08T04:49:16.771Z,1012.75
2018-03-08T04:50:16.747Z,1012.74
2018-03-08T04:51:16.744Z,1012.74
2018-03-08T04:52:16.679Z,1012.71
2018-03-08T04:53:16.646Z,1012.72
2018-03-08T04:54:16.661Z,1012.75
2018-03-08T04:55:16.581Z,1012.74
2018-03-08T04:56:16.564Z,1012.70
2018-03-08T04:57:16.546Z,1012.72
2018-03-08T04:58:16.510Z,1012.73
2018-03-08T04:59:16.479Z,1012.72
2018-03-08T05:00:16.474Z,1012.75
2018-03-08T05:01:16.427Z,1012.72
2018-03-08T05:02:16.391Z,1012.73
2018-03-08T05:03:16.375Z,1012.72
2018-03-08T05:04:16.342Z,1012.74
2018-03-08T05:05:16.311Z,1012.77
2018-03-08T05:06:16.271Z,1012.74
2018-03-08T05:07:16.246Z,1012.74
2018-03-08T05:08:16.204Z,1012.75
2018-03-08T05:09:17.061Z,1012.70
2018-03-08T05:10:16.169Z,1012.71
2018-03-08T05:11:16.118Z,1012.71
2018-03-08T05:12:16.114Z,1012.71
2018-03-08T05:13:16.056Z,1012.71
2018-03-08T05:14:16.042Z,1012.69
2018-03-08T05:15:16.024Z,1012.67
2018-03-08T05:16:15.995Z,1012.67
2018-03-08T05:17:15.950Z,1012.62
2018-03-08T05:18:15.919Z,1012.62
2018-03-08T05:19:15.872Z,1012.68
2018-03-08T05:20:16.569Z,1012.64
2018-03-08T05:21:15.836Z,1012.68
2018-03-08T05:22:15.793Z,1012.61
2018-03-08T05:23:15.779Z,1012.63
2018-03-08T05:24:15.756Z,1012.62
2018-03-08T05:25:15.690Z,1012.58
2018-03-08T05:26:15.664Z,1012.59
2018-03-08T05:27:15.653Z,1012.58
2018-03-08T05:28:15.609Z,1012.58
2018-03-08T05:29:15.587Z,1012.58
2018-03-08T05:30:15.542Z,1012.56
2018-03-08T05:31:15.540Z,1012.55
2018-03-08T05:32:15.491Z,1012.57
2018-03-08T05:33:15.467Z,1012.59
2018-03-08T05:34:15.456Z,1012.55
2018-03-08T05:35:15.426Z,1012.58
2018-03-08T05:36:15.379Z,1012.55
2018-03-08T05:37:15.318Z,1012.53
2018-03-08T05:38:15.319Z,1012.55
2018-03-08T05:39:15.272Z,1012.56
2018-03-08T05:40:15.238Z,1012.54
2018-03-08T05:41:15.209Z,1012.49
2018-03-08T05:42:15.173Z,1012.49
2018-03-08T05:43:15.178Z,1012.48
2018-03-08T05:44:15.130Z,1012.45
2018-03-08T05:45:15.096Z,1012.43
2018-03-08T05:46:15.065Z,1012.43
2018-03-08T05:47:15.042Z,1012.42
2018-03-08T05:48:15.038Z,1012.40
2018-03-08T05:49:14.968Z,1012.42
2018-03-08T05:50:14.961Z,1012.40
2018-03-08T05:51:14.945Z,1012.38
2018-03-08T05:52:14.886Z,1012.39
2018-03-08T05:53:14.885Z,1012.38
2018-03-08T05:54:14.847Z,1012.40
2018-03-08T05:55:14.799Z,1012.39
2018-03-08T05:56:14.769Z,1012.39
2018-03-08T05:57:14.746Z,1012.36
2018-03-08T05:58:14.709Z,1012.34
2018-03-08T05:59:14.674Z,1012.33
2018-03-08T06:00:14.642Z,1012.39
2018-03-08T06:01:14.611Z,1012.35
2018-03-08T06:02:14.581Z,1012.35
2018-03-08T06:03:14.559Z,1012.34
2018-03-08T06:04:14.547Z,1012.35
2018-03-08T06:05:14.490Z,1012.34
2018-03-08T06:06:14.493Z,1012.36
2018-03-08T06:07:14.448Z,1012.37
2018-03-08T06:08:14.396Z,1012.39
2018-03-08T06:09:14.387Z,1012.37
2018-03-08T06:10:14.357Z,1012.38
2018-03-08T06:11:14.338Z,1012.36
2018-03-08T06:12:14.299Z,1012.35
2018-03-08T06:13:14.249Z,1012.33
2018-03-08T06:14:14.238Z,1012.35
2018-03-08T06:15:14.214Z,1012.35
2018-03-08T06:16:14.193Z,1012.34
2018-03-08T06:17:14.134Z,1012.36
2018-03-08T06:18:14.102Z,1012.36
2018-03-08T06:19:14.076Z,1012.37
2018-03-08T06:20:14.044Z,1012.30
2018-03-08T06:21:14.001Z,1012.31
2018-03-08T06:22:13.991Z,1012.33
2018-03-08T06:23:13.954Z,1012.33
2018-03-08T06:24:13.910Z,1012.34
2018-03-08T06:25:13.911Z,1012.32
2018-03-08T06:26:13.933Z,1012.27
2018-03-08T06:27:13.826Z,1012.31
2018-03-08T06:28:13.820Z,1012.33
2018-03-08T06:29:13.789Z,1012.34
2018-03-08T06:30:13.774Z,1012.32
2018-03-08T06:31:13.714Z,1012.32
2018-03-08T06:32:13.706Z,1012.33
2018-03-08T06:33:13.670Z,1012.32
2018-03-08T06:34:13.642Z,1012.32
2018-03-08T06:35:13.620Z,1012.34
2018-03-08T06:36:13.556Z,1012.31
2018-03-08T06:37:13.535Z,1012.37
2018-03-08T06:38:13.530Z,1012.36
2018-03-08T06:39:13.466Z,1012.36
2018-03-08T06:40:13.469Z,1012.35
2018-03-08T06:41:13.422Z,1012.36
2018-03-08T06:42:13.392Z,1012.33
2018-03-08T06:43:13.374Z,1012.32
2018-03-08T06:44:13.344Z,1012.35
2018-03-08T06:45:13.283Z,1012.34
2018-03-08T06:46:13.269Z,1012.33
2018-03-08T06:47:13.232Z,1012.32
2018-03-08T06:48:13.229Z,1012.29
2018-03-08T06:49:13.186Z,1012.30
2018-03-08T06:50:13.147Z,1012.28
2018-03-08T06:51:13.088Z,1012.29
2018-03-08T06:52:13.108Z,1012.32
2018-03-08T06:53:13.066Z,1012.27
2018-03-08T06:54:13.015Z,1012.32
2018-03-08T06:55:12.991Z,1012.29
2018-03-08T06:56:12.949Z,1012.33
2018-03-08T06:57:12.960Z,1012.31
2018-03-08T06:58:12.904Z,1012.33
2018-03-08T06:59:12.899Z,1012.34
2018-03-08T07:00:12.839Z,1012.33
2018-03-08T07:01:12.828Z,1012.33
2018-03-08T07:02:12.791Z,1012.31
2018-03-08T07:03:12.765Z,1012.35
2018-03-08T07:04:12.715Z,1012.32
2018-03-08T07:05:12.683Z,1012.34
2018-03-08T07:06:12.682Z,1012.32
2018-03-08T07:07:12.627Z,1012.32
2018-03-08T07:08:12.595Z,1012.33
2018-03-08T07:09:12.588Z,1012.32
2018-03-08T07:10:12.542Z,1012.34
2018-03-08T07:11:12.502Z,1012.34
2018-03-08T07:12:12.502Z,1012.39
2018-03-08T07:13:12.443Z,1012.35
2018-03-08T07:14:12.414Z,1012.36
2018-03-08T07:15:12.411Z,1012.37
2018-03-08T07:16:12.376Z,1012.37
2018-03-08T07:17:12.318Z,1012.36
2018-03-08T07:18:12.311Z,1012.33
2018-03-08T07:19:12.280Z,1012.32
2018-03-08T07:20:12.263Z,1012.30
2018-03-08T07:21:12.199Z,1012.34
2018-03-08T07:22:12.177Z,1012.33
2018-03-08T07:23:12.126Z,1012.33
2018-03-08T07:24:12.108Z,1012.32
2018-03-08T07:25:12.088Z,1012.34
2018-03-08T07:26:12.067Z,1012.32
2018-03-08T07:27:12.003Z,1012.33
2018-03-08T07:28:11.996Z,1012.38
2018-03-08T07:29:11.986Z,1012.37
2018-03-08T07:30:11.929Z,1012.40
2018-03-08T07:31:11.884Z,1012.45
2018-03-08T07:32:11.895Z,1012.46
2018-03-08T07:33:11.833Z,1012.48
2018-03-08T07:34:11.797Z,1012.47
2018-03-08T07:35:11.807Z,1012.49
2018-03-08T07:36:11.767Z,1012.50
2018-03-08T07:37:11.732Z,1012.45
2018-03-08T07:38:11.680Z,1012.47
2018-03-08T07:39:11.701Z,1012.46
2018-03-08T07:40:11.649Z,1012.49
2018-03-08T07:41:11.613Z,1012.46
2018-03-08T07:42:11.610Z,1012.50
2018-03-08T07:43:11.554Z,1012.51
2018-03-08T07:44:11.522Z,1012.46
2018-03-08T07:45:11.499Z,1012.47
2018-03-08T07:46:11.424Z,1012.46
2018-03-08T07:47:11.459Z,1012.47
2018-03-08T07:48:11.381Z,1012.48
2018-03-08T07:49:11.371Z,1012.47
2018-03-08T07:50:11.336Z,1012.47
2018-03-08T07:51:11.318Z,1012.46
2018-03-08T07:52:11.259Z,1012.52
2018-03-08T07:53:11.247Z,1012.50
2018-03-08T07:54:11.175Z,1012.48
2018-03-08T07:55:11.222Z,1012.45
2018-03-08T07:56:11.116Z,1012.44
2018-03-08T07:57:11.101Z,1012.47
2018-03-08T07:58:11.074Z,1012.52
2018-03-08T07:59:11.030Z,1012.50
2018-03-08T08:00:11.026Z,1012.51
2018-03-08T08:01:10.983Z,1012.48
2018-03-08T08:02:10.997Z,1012.47
2018-03-08T08:03:10.917Z,1012.46
2018-03-08T08:04:10.879Z,1012.48
2018-03-08T08:05:10.886Z,1012.47
2018-03-08T08:06:10.847Z,1012.44
2018-03-08T08:07:10.790Z,1012.45
2018-03-08T08:08:10.766Z,1012.47
2018-03-08T08:09:10.725Z,1012.48
2018-03-08T08:10:10.707Z,1012.50
2018-03-08T08:11:10.670Z,1012.48
2018-03-08T08:12:10.643Z,1012.44
2018-03-08T08:13:10.616Z,1012.48
2018-03-08T08:14:10.577Z,1012.50
2018-03-08T08:15:10.544Z,1012.44
2018-03-08T08:16:10.535Z,1012.41
2018-03-08T08:17:10.497Z,1012.42
2018-03-08T08:18:10.469Z,1012.39
2018-03-08T08:19:10.419Z,1012.44
2018-03-08T08:20:10.382Z,1012.47
2018-03-08T08:21:10.361Z,1012.44
2018-03-08T08:22:10.351Z,1012.41
2018-03-08T08:23:10.357Z,1012.42
2018-03-08T08:24:10.298Z,1012.41
2018-03-08T08:25:10.255Z,1012.43
2018-03-08T08:26:10.208Z,1012.44
2018-03-08T08:27:10.197Z,1012.48
2018-03-08T08:28:10.166Z,1012.40
2018-03-08T08:29:10.116Z,1012.45
2018-03-08T08:30:10.073Z,1012.46
2018-03-08T08:31:10.056Z,1012.45
2018-03-08T08:32:10.042Z,1012.49
2018-03-08T08:33:09.982Z,1012.49
2018-03-08T08:34:09.973Z,1012.50
2018-03-08T08:35:09.970Z,1012.49
2018-03-08T08:36:09.898Z,1012.51
2018-03-08T08:37:09.848Z,1012.49
2018-03-08T08:38:09.847Z,1012.47
2018-03-08T08:39:09.807Z,1012.51
2018-03-08T08:40:09.771Z,1012.50
2018-03-08T08:41:09.756Z,1012.50
2018-03-08T08:42:09.720Z,1012.52
2018-03-08T08:43:09.672Z,1012.52
2018-03-08T08:44:09.649Z,1012.52
2018-03-08T08:45:09.649Z,1012.50
2018-03-08T08:46:09.615Z,1012.54
2018-03-08T08:47:09.542Z,1012.55
2018-03-08T08:48:09.532Z,1012.51
2018-03-08T08:49:09.517Z,1012.53
2018-03-08T08:50:09.491Z,1012.53
2018-03-08T08:51:09.425Z,1012.56
2018-03-08T08:52:09.413Z,1012.52
2018-03-08T08:53:09.347Z,1012.54
2018-03-08T08:54:09.375Z,1012.54
2018-03-08T08:55:09.311Z,1012.52
2018-03-08T08:56:09.272Z,1012.56
2018-03-08T08:57:09.255Z,1012.58
2018-03-08T08:58:09.238Z,1012.58
2018-03-08T08:59:09.172Z,1012.56
2018-03-08T09:00:09.152Z,1012.61
2018-03-08T09:01:09.620Z,1012.59
2018-03-08T09:02:09.109Z,1012.62
2018-03-08T09:03:09.061Z,1012.62
2018-03-08T09:04:09.060Z,1012.64
2018-03-08T09:05:08.991Z,1012.67
2018-03-08T09:06:08.994Z,1012.68
2018-03-08T09:07:08.938Z,1012.67
2018-03-08T09:08:08.896Z,1012.68
2018-03-08T09:09:08.871Z,1012.67
2018-03-08T09:10:08.876Z,1012.68
2018-03-08T09:11:08.839Z,1012.71
2018-03-08T09:12:08.794Z,1012.70
2018-03-08T09:13:08.767Z,1012.71
2018-03-08T09:14:08.727Z,1012.73
2018-03-08T09:15:08.702Z,1012.71
2018-03-08T09:16:08.661Z,1012.69
2018-03-08T09:17:08.637Z,1012.71
2018-03-08T09:18:08.585Z,1012.68
2018-03-08T09:19:08.591Z,1012.71
2018-03-08T09:20:08.535Z,1012.69
2018-03-08T09:21:08.530Z,1012.72
2018-03-08T09:22:08.473Z,1012.72
2018-03-08T09:23:08.467Z,1012.75
2018-03-08T09:24:08.393Z,1012.75
2018-03-08T09:25:08.385Z,1012.73
2018-03-08T09:26:08.349Z,1012.79
2018-03-08T09:27:08.341Z,1012.77
2018-03-08T09:28:08.298Z,1012.79
2018-03-08T09:29:08.262Z,1012.79
2018-03-08T09:30:08.232Z,1012.80
2018-03-08T09:31:08.205Z,1012.78
2018-03-08T09:32:08.174Z,1012.77
2018-03-08T09:33:08.109Z,1012.80
2018-03-08T09:34:08.125Z,1012.80
2018-03-08T09:35:08.081Z,1012.83
2018-03-08T09:36:08.060Z,1012.82
2018-03-08T09:37:08.021Z,1012.84
2018-03-08T09:38:07.968Z,1012.79
2018-03-08T09:39:07.943Z,1012.86
2018-03-08T09:40:07.904Z,1012.80
2018-03-08T09:41:07.892Z,1012.83
2018-03-08T09:42:07.851Z,1012.86
2018-03-08T09:43:07.811Z,1012.89
2018-03-08T09:44:07.785Z,1012.88
2018-03-08T09:45:07.763Z,1012.86
2018-03-08T09:46:07.727Z,1012.89
2018-03-08T09:47:07.699Z,1012.92
2018-03-08T09:48:07.660Z,1012.92
2018-03-08T09:49:07.673Z,1012.95
2018-03-08T09:50:07.624Z,1012.97
2018-03-08T09:51:07.590Z,1012.99
2018-03-08T09:52:07.553Z,1013.01
2018-03-08T09:53:07.529Z,1013.03
2018-03-08T09:54:07.487Z,1013.02
2018-03-08T09:55:07.444Z,1013.03
2018-03-08T09:56:07.438Z,1013.07
2018-03-08T09:57:07.369Z,1013.10
2018-03-08T09:58:07.347Z,1013.10
2018-03-08T09:59:07.345Z,1013.13
2018-03-08T10:00:07.298Z,1013.14
2018-03-08T10:01:07.258Z,1013.15
2018-03-08T10:02:07.232Z,1013.12
2018-03-08T10:03:07.186Z,1013.12
2018-03-08T10:04:07.165Z,1013.12
2018-03-08T10:05:07.127Z,1013.14
2018-03-08T10:06:07.088Z,1013.15
2018-03-08T10:07:07.078Z,1013.12
2018-03-08T10:08:07.048Z,1013.19
2018-03-08T10:09:07.006Z,1013.18
2018-03-08T10:10:06.968Z,1013.17
2018-03-08T10:11:06.949Z,1013.15
2018-03-08T10:12:06.920Z,1013.18
2018-03-08T10:13:06.892Z,1013.17
2018-03-08T10:14:06.845Z,1013.15
2018-03-08T10:15:06.822Z,1013.18
2018-03-08T10:16:06.793Z,1013.18
2018-03-08T10:17:06.753Z,1013.16
2018-03-08T10:18:06.731Z,1013.21
2018-03-08T10:19:06.693Z,1013.17
2018-03-08T10:20:06.689Z,1013.22
2018-03-08T10:21:06.637Z,1013.24
2018-03-08T10:22:06.596Z,1013.22
2018-03-08T10:23:06.572Z,1013.23
2018-03-08T10:24:06.529Z,1013.24
2018-03-08T10:25:06.494Z,1013.28
2018-03-08T10:26:06.518Z,1013.27
2018-03-08T10:27:06.455Z,1013.32
2018-03-08T10:28:06.439Z,1013.32
2018-03-08T10:29:06.377Z,1013.36
2018-03-08T10:30:06.369Z,1013.35
2018-03-08T10:31:06.313Z,1013.38
2018-03-08T10:32:06.317Z,1013.39
2018-03-08T10:33:06.284Z,1013.40
2018-03-08T10:34:06.227Z,1013.42
2018-03-08T10:35:06.230Z,1013.42
2018-03-08T10:36:06.158Z,1013.43
2018-03-08T10:37:06.161Z,1013.40
2018-03-08T10:38:06.108Z,1013.44
2018-03-08T10:40:06.065Z,1013.47
2018-03-08T10:41:06.047Z,1013.48
2018-03-08T10:42:06.004Z,1013.47
2018-03-08T10:43:05.973Z,1013.48
2018-03-08T10:44:05.908Z,1013.51
2018-03-08T10:45:05.896Z,1013.47
2018-03-08T10:46:05.859Z,1013.47
2018-03-08T10:47:05.834Z,1013.49
2018-03-08T10:48:05.790Z,1013.54
2018-03-08T10:49:05.786Z,1013.58
2018-03-08T10:50:05.725Z,1013.57
2018-03-08T10:51:05.727Z,1013.60
2018-03-08T10:52:05.656Z,1013.59
2018-03-08T10:53:05.627Z,1013.59
2018-03-08T10:54:05.624Z,1013.59
2018-03-08T10:55:05.585Z,1013.59
2018-03-08T10:56:05.563Z,1013.55
2018-03-08T10:57:05.505Z,1013.59
2018-03-08T10:58:05.480Z,1013.56
2018-03-08T10:59:05.438Z,1013.59
2018-03-08T11:00:05.414Z,1013.57
2018-03-08T11:01:05.428Z,1013.53
2018-03-08T11:02:05.342Z,1013.56
2018-03-08T11:03:06.789Z,1013.53
2018-03-08T11:04:05.287Z,1013.52
2018-03-08T11:05:05.284Z,1013.56
2018-03-08T11:06:05.238Z,1013.53
2018-03-08T11:07:05.219Z,1013.59
2018-03-08T11:08:05.161Z,1013.58
2018-03-08T11:09:05.151Z,1013.59
2018-03-08T11:10:05.095Z,1013.61
2018-03-08T11:11:05.075Z,1013.57
2018-03-08T11:12:05.053Z,1013.62
2018-03-08T11:13:05.007Z,1013.61
2018-03-08T11:14:04.981Z,1013.64
2018-03-08T11:15:04.942Z,1013.60
2018-03-08T11:16:04.936Z,1013.65
2018-03-08T11:17:04.911Z,1013.62
2018-03-08T11:18:04.848Z,1013.66
2018-03-08T11:19:04.854Z,1013.64
2018-03-08T11:20:04.801Z,1013.63
2018-03-08T11:21:04.743Z,1013.63
2018-03-08T11:22:04.719Z,1013.60
2018-03-08T11:23:04.730Z,1013.63
2018-03-08T11:24:04.687Z,1013.61
2018-03-08T11:25:04.645Z,1013.60
2018-03-08T11:26:04.611Z,1013.63
2018-03-08T11:27:04.597Z,1013.60
2018-03-08T11:28:04.550Z,1013.62
2018-03-08T11:29:04.522Z,1013.62
2018-03-08T11:30:04.493Z,1013.62
2018-03-08T11:31:04.460Z,1013.61
2018-03-08T11:32:04.419Z,1013.64
2018-03-08T11:33:04.378Z,1013.63
2018-03-08T11:34:04.384Z,1013.65
2018-03-08T11:35:04.320Z,1013.66
2018-03-08T11:36:04.298Z,1013.62
2018-03-08T11:37:04.269Z,1013.63
2018-03-08T11:38:04.241Z,1013.61
2018-03-08T11:39:05.283Z,1013.63
2018-03-08T11:40:05.152Z,1013.64
2018-03-08T11:41:04.137Z,1013.64
2018-03-08T11:42:04.130Z,1013.63
2018-03-08T11:43:04.100Z,1013.66
2018-03-08T11:44:04.054Z,1013.70
2018-03-08T11:45:04.045Z,1013.65
2018-03-08T11:46:04.007Z,1013.70
2018-03-08T11:47:03.955Z,1013.70
2018-03-08T11:48:03.921Z,1013.71
2018-03-08T11:49:03.902Z,1013.73
2018-03-08T11:50:03.890Z,1013.71
2018-03-08T11:51:03.845Z,1013.74
2018-03-08T11:52:03.858Z,1013.76
2018-03-08T11:53:03.775Z,1013.69
2018-03-08T11:54:03.770Z,1013.65
2018-03-08T11:55:03.706Z,1013.68
2018-03-08T11:56:03.689Z,1013.67
2018-03-08T11:57:03.637Z,1013.67
2018-03-08T11:58:03.633Z,1013.65
2018-03-08T11:59:03.603Z,1013.65
2018-03-08T12:00:03.584Z,1013.65
2018-03-08T12:01:03.522Z,1013.66
2018-03-08T12:02:03.507Z,1013.67
2018-03-08T12:03:03.466Z,1013.64
2018-03-08T12:04:03.439Z,1013.70
2018-03-08T12:05:03.406Z,1013.68
2018-03-08T12:06:03.366Z,1013.67